createdAt,value
2022-12-17T00:01:24.835Z,58.67
2022-12-17T00:04:12.810Z,55.33
2022-12-17T00:07:00.997Z,61.00
2022-12-17T00:09:50.427Z,61.00
2022-12-17T00:12:38.325Z,58.00
2022-12-17T00:15:26.941Z,63.00
2022-12-17T00:18:45.917Z,60.00
2022-12-17T00:21:33.956Z,61.67
2022-12-17T00:24:22.109Z,63.67
2022-12-17T00:27:09.976Z,61.67
2022-12-17T00:29:58.146Z,66.00
2022-12-17T00:32:46.311Z,65.00
2022-12-17T00:35:34.633Z,63.00
2022-12-17T00:38:22.834Z,79.67
2022-12-17T00:41:12.632Z,64.33
2022-12-17T00:44:00.753Z,62.67
2022-12-17T00:46:49.009Z,66.00
2022-12-17T00:49:36.838Z,79.00
2022-12-17T00:52:24.950Z,65.00
2022-12-17T00:55:13.292Z,67.67
2022-12-17T00:58:01.408Z,68.00
2022-12-17T01:00:49.695Z,65.00
2022-12-17T01:03:38.325Z,63.50
2022-12-17T01:06:27.251Z,66.33
2022-12-17T01:09:15.385Z,65.00
2022-12-17T01:12:03.359Z,62.33
2022-12-17T01:14:51.553Z,72.00
2022-12-17T01:17:39.805Z,64.00
2022-12-17T01:20:28.371Z,70.00
2022-12-17T01:23:16.521Z,75.00
2022-12-17T01:26:16.343Z,66.67
2022-12-17T01:29:04.538Z,71.00
2022-12-17T01:31:52.826Z,66.33
2022-12-17T01:34:41.840Z,77.75
2022-12-17T01:37:32.898Z,76.33
2022-12-17T01:40:21.148Z,73.67
2022-12-17T01:43:09.055Z,69.33
2022-12-17T01:46:03.958Z,73.67
2022-12-17T01:49:05.035Z,63.33
2022-12-17T01:51:55.137Z,69.50
2022-12-17T01:54:44.103Z,71.75
2022-12-17T01:57:32.752Z,62.33
2022-12-17T02:00:33.953Z,78.33
2022-12-17T02:03:23.019Z,67.00
2022-12-17T02:06:39.800Z,69.67
2022-12-17T02:10:32.616Z,70.67
2022-12-17T02:13:53.357Z,69.67
2022-12-17T02:17:02.245Z,66.00
2022-12-17T02:20:14.724Z,70.67
2022-12-17T02:23:41.044Z,68.67
2022-12-17T02:26:48.358Z,64.00
2022-12-17T02:29:38.348Z,60.00
2022-12-17T02:32:29.918Z,69.33
2022-12-17T02:35:23.650Z,72.67
2022-12-17T02:38:11.813Z,80.00
2022-12-17T02:41:04.038Z,70.25
2022-12-17T02:43:53.191Z,78.33
2022-12-17T02:46:41.547Z,68.33
2022-12-17T02:49:29.804Z,72.33
2022-12-17T02:52:18.304Z,68.67
2022-12-17T02:55:06.257Z,79.67
2022-12-17T02:57:54.718Z,81.67
2022-12-17T03:00:43.119Z,77.00
2022-12-17T03:03:31.370Z,77.33
2022-12-17T03:06:19.679Z,77.67
2022-12-17T03:09:07.893Z,73.33
2022-12-17T03:11:56.242Z,78.00
2022-12-17T03:14:42.702Z,76.00
2022-12-17T03:17:30.767Z,67.00
2022-12-17T03:20:18.859Z,69.67
2022-12-17T03:23:06.807Z,73.67
2022-12-17T03:25:55.004Z,76.00
2022-12-17T03:28:43.068Z,74.00
2022-12-17T03:31:31.001Z,77.00
2022-12-17T03:34:19.008Z,78.33
2022-12-17T03:37:07.112Z,75.50
2022-12-17T03:39:55.439Z,76.33
2022-12-17T03:42:43.492Z,71.00
2022-12-17T03:45:31.974Z,68.75
2022-12-17T03:48:30.969Z,68.50
2022-12-17T03:51:20.307Z,77.33
2022-12-17T03:54:08.217Z,78.50
2022-12-17T03:56:56.514Z,71.33
2022-12-17T03:59:44.665Z,75.67
2022-12-17T04:02:32.867Z,83.00
2022-12-17T04:05:21.080Z,79.33
2022-12-17T04:08:09.391Z,73.67
2022-12-17T04:10:58.619Z,82.75
2022-12-17T04:13:47.244Z,79.67
2022-12-17T04:16:35.699Z,74.67
2022-12-17T04:19:23.903Z,79.00
2022-12-17T04:22:11.996Z,80.00
2022-12-17T04:25:00.191Z,90.33
2022-12-17T04:27:48.006Z,78.33
2022-12-17T04:30:36.420Z,74.67
2022-12-17T04:33:24.697Z,81.00
2022-12-17T04:36:12.920Z,76.67
2022-12-17T04:39:01.256Z,81.67
2022-12-17T04:41:49.225Z,81.33
2022-12-17T04:44:37.449Z,80.33
2022-12-17T04:47:25.726Z,77.00
2022-12-17T04:50:13.793Z,76.67
2022-12-17T04:53:02.103Z,69.33
2022-12-17T04:55:50.343Z,78.67
2022-12-17T04:58:38.535Z,75.00
2022-12-17T05:01:26.839Z,75.00
2022-12-17T05:04:15.058Z,86.00
2022-12-17T05:07:03.329Z,95.00
2022-12-17T05:09:51.346Z,92.33
2022-12-17T05:12:39.305Z,86.33
2022-12-17T05:15:27.657Z,83.67
2022-12-17T05:18:27.748Z,80.33
2022-12-17T05:21:16.096Z,90.33
2022-12-17T05:24:03.992Z,78.67
2022-12-17T05:26:52.169Z,82.67
2022-12-17T05:29:40.787Z,83.33
2022-12-17T05:32:28.998Z,68.00
2022-12-17T05:35:17.986Z,86.25
2022-12-17T05:38:06.175Z,77.67
2022-12-17T05:40:54.646Z,79.67
2022-12-17T05:43:42.802Z,83.67
2022-12-17T05:46:30.892Z,84.00
2022-12-17T05:49:18.985Z,83.33
2022-12-17T05:52:07.108Z,74.75
2022-12-17T05:54:56.139Z,79.75
2022-12-17T05:57:44.252Z,77.67
2022-12-17T06:00:34.207Z,73.00
2022-12-17T06:03:23.793Z,73.67
2022-12-17T06:06:15.740Z,74.00
2022-12-17T06:09:03.895Z,75.00
2022-12-17T06:12:19.856Z,77.33
2022-12-17T06:15:07.992Z,72.00
2022-12-17T06:17:56.250Z,75.33
2022-12-17T06:20:44.339Z,69.00
2022-12-17T06:23:33.036Z,71.67
2022-12-17T06:26:21.374Z,70.67
2022-12-17T06:29:09.629Z,68.67
2022-12-17T06:31:57.994Z,74.00
2022-12-17T06:34:46.313Z,74.00
2022-12-17T06:37:34.612Z,81.67
2022-12-17T06:40:23.356Z,73.00
2022-12-17T06:43:16.124Z,70.00
2022-12-17T06:46:04.359Z,69.00
2022-12-17T06:48:52.500Z,96.67
2022-12-17T06:51:40.522Z,71.33
2022-12-17T06:54:45.458Z,69.67
2022-12-17T06:57:36.537Z,80.67
2022-12-17T07:00:30.263Z,77.33
2022-12-17T07:03:18.462Z,74.67
2022-12-17T07:06:09.590Z,70.67
2022-12-17T07:08:57.783Z,67.33
2022-12-17T07:11:45.713Z,69.33
2022-12-17T07:14:33.771Z,67.67
2022-12-17T07:17:21.789Z,69.33
2022-12-17T07:20:09.851Z,68.67
2022-12-17T07:22:58.046Z,67.67
2022-12-17T07:25:46.500Z,70.33
2022-12-17T07:28:34.414Z,70.00
2022-12-17T07:31:22.542Z,71.00
2022-12-17T07:34:10.636Z,68.00
2022-12-17T07:36:58.522Z,69.67
2022-12-17T07:39:46.200Z,68.67
2022-12-17T07:42:34.271Z,68.67
2022-12-17T07:45:22.624Z,68.00
2022-12-17T07:48:14.391Z,68.00
2022-12-17T07:51:02.364Z,65.67
2022-12-17T07:53:50.514Z,64.33
2022-12-17T07:56:38.999Z,70.67
2022-12-17T07:59:27.192Z,69.33
2022-12-17T08:02:15.362Z,70.67
2022-12-17T08:05:03.734Z,65.67
2022-12-17T08:07:51.800Z,69.00
2022-12-17T08:10:40.088Z,68.00
2022-12-17T08:13:28.657Z,66.33
2022-12-17T08:16:16.922Z,65.33
2022-12-17T08:19:05.038Z,69.00
2022-12-17T08:21:53.239Z,74.00
2022-12-17T08:24:41.101Z,64.00
2022-12-17T08:27:29.347Z,64.33
2022-12-17T08:30:17.516Z,67.00
2022-12-17T08:33:05.635Z,66.33
2022-12-17T08:35:53.851Z,70.67
2022-12-17T08:38:42.024Z,69.00
2022-12-17T08:41:29.964Z,66.67
2022-12-17T08:44:17.792Z,65.33
2022-12-17T08:47:05.946Z,66.00
2022-12-17T08:49:54.062Z,72.33
2022-12-17T08:52:44.693Z,71.00
2022-12-17T08:55:33.268Z,69.00
2022-12-17T08:58:21.265Z,61.33
2022-12-17T09:01:09.589Z,78.67
2022-12-17T09:03:57.657Z,77.67
2022-12-17T09:06:45.442Z,57.67
2022-12-17T09:09:33.039Z,59.00
2022-12-17T09:12:20.944Z,72.67
2022-12-17T09:15:08.719Z,68.67
2022-12-17T09:17:56.880Z,65.00
2022-12-17T09:20:45.017Z,65.00
2022-12-17T09:23:37.343Z,77.00
2022-12-17T09:26:26.375Z,83.67
2022-12-17T09:29:14.625Z,69.67
2022-12-17T09:32:02.887Z,65.33
2022-12-17T09:34:50.971Z,66.67
2022-12-17T09:37:39.209Z,75.00
2022-12-17T09:40:37.209Z,65.33
2022-12-17T09:44:00.403Z,67.33
2022-12-17T09:47:14.150Z,61.67
2022-12-17T09:50:02.503Z,65.33
2022-12-17T09:52:59.974Z,69.00
2022-12-17T09:56:12.315Z,68.67
2022-12-17T09:59:00.310Z,62.33
2022-12-17T10:01:53.990Z,73.67
2022-12-17T10:04:56.021Z,75.67
2022-12-17T10:07:54.921Z,72.67
2022-12-17T10:10:51.214Z,101.00
2022-12-17T10:13:42.177Z,79.25
2022-12-17T10:16:55.328Z,65.33
2022-12-17T10:19:59.090Z,74.67
2022-12-17T10:22:47.676Z,63.67
2022-12-17T10:25:40.480Z,54.67
2022-12-17T10:28:38.121Z,63.33
2022-12-17T10:31:38.000Z,41.33
2022-12-17T10:34:39.453Z,65.67
2022-12-17T10:37:43.049Z,76.33
2022-12-17T10:40:54.721Z,67.33
2022-12-17T10:43:53.099Z,70.67
2022-12-17T10:46:51.437Z,67.67
2022-12-17T10:49:43.745Z,68.33
2022-12-17T10:52:51.423Z,90.00
2022-12-17T10:55:46.244Z,104.00
2022-12-17T10:58:47.977Z,90.00
2022-12-17T11:01:44.973Z,83.00
2022-12-17T11:04:49.838Z,84.75
2022-12-17T11:08:13.675Z,72.67
2022-12-17T11:11:03.988Z,66.67
2022-12-17T11:14:00.060Z,67.00
2022-12-17T11:17:13.734Z,59.67
2022-12-17T11:20:27.047Z,65.33
2022-12-17T11:23:19.947Z,69.67
2022-12-17T11:26:27.665Z,60.00
2022-12-17T11:29:18.364Z,65.33
2022-12-17T11:32:36.693Z,64.00
2022-12-17T11:36:40.830Z,64.67
2022-12-17T11:40:00.600Z,65.67
2022-12-17T11:43:04.642Z,66.33
2022-12-17T11:46:32.317Z,70.00
2022-12-17T11:49:57.486Z,75.33
2022-12-17T11:53:38.873Z,67.00
2022-12-17T11:56:39.316Z,62.00
2022-12-17T11:59:54.908Z,67.00
2022-12-17T12:03:09.549Z,76.33
2022-12-17T12:06:18.396Z,68.67
2022-12-17T12:09:40.887Z,59.50
2022-12-17T12:13:09.694Z,62.00
2022-12-17T12:16:46.446Z,62.67
2022-12-17T12:20:02.266Z,64.67
2022-12-17T12:23:21.136Z,63.67
2022-12-17T12:26:27.014Z,60.00
2022-12-17T12:29:55.325Z,58.00
2022-12-17T12:33:19.792Z,70.33
2022-12-17T12:36:10.538Z,66.00
2022-12-17T12:39:03.976Z,51.67
2022-12-17T12:42:52.055Z,61.67
2022-12-17T12:46:09.397Z,57.67
2022-12-17T12:49:19.374Z,70.00
2022-12-17T12:52:13.598Z,61.00
2022-12-17T12:55:04.360Z,57.33
2022-12-17T12:58:14.800Z,59.00
2022-12-17T13:01:05.660Z,60.00
2022-12-17T13:04:02.647Z,60.00
2022-12-17T13:06:57.123Z,60.00
2022-12-17T13:09:52.733Z,57.67
2022-12-17T13:12:46.481Z,57.33
2022-12-17T13:15:37.889Z,57.33
2022-12-17T13:18:36.423Z,45.50
2022-12-17T13:21:27.314Z,59.00
2022-12-17T13:23:56.890Z,54.67
2022-12-17T13:26:44.054Z,54.33
2022-12-17T13:29:37.261Z,60.00
2022-12-17T13:32:30.562Z,60.00
2022-12-17T13:35:42.396Z,54.00
2022-12-17T13:38:50.546Z,54.33
2022-12-17T13:41:28.523Z,58.00
2022-12-17T13:44:23.979Z,51.67
2022-12-17T13:46:55.676Z,61.33
2022-12-17T13:49:30.860Z,61.00
2022-12-17T13:52:17.641Z,60.00
2022-12-17T13:54:50.024Z,58.67
2022-12-17T13:57:26.242Z,58.33
2022-12-17T13:59:59.459Z,57.50
2022-12-17T14:02:33.846Z,58.00
2022-12-17T14:05:08.313Z,53.33
2022-12-17T14:07:40.312Z,59.33
2022-12-17T14:10:20.505Z,49.67
2022-12-17T14:12:50.170Z,49.50
2022-12-17T14:15:25.783Z,57.00
2022-12-17T14:17:57.030Z,60.00
2022-12-17T14:20:34.452Z,57.00
2022-12-17T14:23:30.320Z,56.33
2022-12-17T14:26:00.855Z,59.00
2022-12-17T14:28:50.476Z,56.67
2022-12-17T14:31:30.986Z,49.67
2022-12-17T14:34:08.177Z,54.00
2022-12-17T14:36:43.438Z,54.00
2022-12-17T14:39:25.197Z,59.00
2022-12-17T14:42:26.205Z,58.67
2022-12-17T14:44:58.664Z,54.00
2022-12-17T14:47:35.224Z,57.33
2022-12-17T14:50:36.418Z,59.00
2022-12-17T14:53:27.931Z,64.67
2022-12-17T14:55:59.282Z,62.33
2022-12-17T14:58:28.826Z,59.33
2022-12-17T15:01:14.279Z,73.67
2022-12-17T15:03:46.952Z,73.33
2022-12-17T15:06:20.091Z,78.67
2022-12-17T15:08:51.325Z,64.33
2022-12-17T15:11:23.621Z,79.67
2022-12-17T15:13:56.656Z,71.33
2022-12-17T15:16:27.270Z,69.00
2022-12-17T15:18:56.848Z,72.00
2022-12-17T15:21:27.619Z,63.00
2022-12-17T15:23:57.248Z,66.33
2022-12-17T15:26:26.925Z,64.67
2022-12-17T15:28:57.168Z,62.67
2022-12-17T15:31:30.603Z,66.33
2022-12-17T15:34:03.279Z,65.67
2022-12-17T15:36:33.613Z,58.33
2022-12-17T15:39:06.286Z,67.33
2022-12-17T15:41:54.638Z,66.33
2022-12-17T15:44:24.161Z,61.67
2022-12-17T15:46:53.728Z,63.67
2022-12-17T15:49:22.086Z,62.50
2022-12-17T15:51:51.628Z,57.33
2022-12-17T15:54:21.171Z,70.00
2022-12-17T15:56:55.715Z,83.33
2022-12-17T15:59:25.565Z,80.00
2022-12-17T16:01:55.266Z,80.67
2022-12-17T16:04:25.488Z,65.33
2022-12-17T16:06:55.458Z,64.00
2022-12-17T16:09:27.085Z,68.33
2022-12-17T16:11:57.849Z,66.33
2022-12-17T16:14:27.370Z,67.33
2022-12-17T16:16:56.910Z,66.33
2022-12-17T16:19:26.657Z,71.67
2022-12-17T16:21:56.211Z,67.33
2022-12-17T16:24:26.018Z,80.33
2022-12-17T16:27:02.448Z,68.33
2022-12-17T16:29:34.383Z,69.33
2022-12-17T16:32:04.062Z,66.33
2022-12-17T16:34:33.759Z,76.00
2022-12-17T16:37:03.577Z,94.00
2022-12-17T16:39:35.056Z,91.33
2022-12-17T16:42:05.215Z,79.33
2022-12-17T16:44:35.666Z,82.50
2022-12-17T16:47:05.311Z,69.00
2022-12-17T16:49:36.068Z,75.00
2022-12-17T16:52:05.917Z,86.67
2022-12-17T16:54:35.500Z,71.67
2022-12-17T16:57:05.094Z,71.67
2022-12-17T16:59:34.592Z,73.00
2022-12-17T17:02:04.595Z,74.33
2022-12-17T17:04:35.015Z,69.67
2022-12-17T17:07:04.700Z,66.33
2022-12-17T17:09:34.248Z,69.67
2022-12-17T17:12:04.028Z,72.33
2022-12-17T17:14:33.533Z,70.00
2022-12-17T17:17:03.173Z,69.00
2022-12-17T17:19:32.803Z,70.33
2022-12-17T17:22:02.372Z,71.00
2022-12-17T17:24:31.871Z,69.67
2022-12-17T17:27:01.690Z,66.00
2022-12-17T17:29:31.372Z,69.33
2022-12-17T17:32:10.421Z,70.00
2022-12-17T17:34:41.209Z,69.67
2022-12-17T17:37:10.782Z,66.67
2022-12-17T17:39:40.409Z,71.00
2022-12-17T17:42:10.093Z,72.00
2022-12-17T17:44:39.653Z,74.33
2022-12-17T17:47:09.220Z,73.33
2022-12-17T17:49:38.871Z,75.67
2022-12-17T17:52:10.231Z,95.33
2022-12-17T17:54:42.159Z,104.33
2022-12-17T17:57:11.891Z,82.33
2022-12-17T17:59:42.182Z,90.00
2022-12-17T18:02:12.249Z,72.00
2022-12-17T18:04:42.034Z,70.00
2022-12-17T18:07:28.275Z,75.00
2022-12-17T18:09:59.932Z,75.33
2022-12-17T18:12:48.246Z,78.00
2022-12-17T18:15:18.723Z,75.67
2022-12-17T18:17:52.101Z,76.33
2022-12-17T18:20:21.645Z,73.67
2022-12-17T18:22:51.219Z,69.00
2022-12-17T18:25:20.817Z,73.33
2022-12-17T18:27:53.919Z,72.67
2022-12-17T18:30:23.573Z,90.00
2022-12-17T18:32:53.248Z,71.00
2022-12-17T18:35:22.844Z,70.33
2022-12-17T18:37:52.462Z,71.00
2022-12-17T18:40:22.045Z,74.00
2022-12-17T18:43:10.155Z,65.33
2022-12-17T18:45:39.709Z,63.00
2022-12-17T18:48:09.261Z,66.00
2022-12-17T18:50:38.829Z,64.33
2022-12-17T18:53:08.620Z,68.00
2022-12-17T18:55:40.748Z,64.00
2022-12-17T18:58:10.755Z,68.00
2022-12-17T19:00:40.353Z,69.67
2022-12-17T19:03:10.311Z,66.33
2022-12-17T19:05:46.496Z,66.67
2022-12-17T19:08:16.889Z,66.00
2022-12-17T19:10:46.516Z,66.00
2022-12-17T19:13:16.207Z,68.67
2022-12-17T19:15:46.817Z,67.67
2022-12-17T19:18:16.691Z,71.00
2022-12-17T19:20:44.405Z,61.00
2022-12-17T19:23:13.964Z,64.33
2022-12-17T19:25:43.554Z,67.67
2022-12-17T19:28:13.071Z,69.00
2022-12-17T19:30:42.707Z,69.33
2022-12-17T19:33:12.204Z,68.33
2022-12-17T19:35:41.720Z,71.00
2022-12-17T19:38:11.210Z,65.33
2022-12-17T19:40:40.669Z,63.00
2022-12-17T19:43:10.262Z,65.00
2022-12-17T19:45:39.830Z,65.67
2022-12-17T19:48:09.422Z,62.00
2022-12-17T19:50:38.912Z,64.33
2022-12-17T19:53:08.458Z,70.00
2022-12-17T19:55:38.032Z,61.67
2022-12-17T19:58:07.574Z,64.67
2022-12-17T20:00:37.356Z,64.00
2022-12-17T20:03:05.463Z,59.00
2022-12-17T20:05:35.012Z,65.00
2022-12-17T20:08:04.989Z,72.67
2022-12-17T20:10:34.498Z,65.67
2022-12-17T20:13:04.833Z,62.67
2022-12-17T20:15:34.359Z,67.33
2022-12-17T20:18:03.079Z,64.50
2022-12-17T20:20:32.700Z,72.00
2022-12-17T20:23:02.268Z,66.67
2022-12-17T20:25:32.066Z,72.00
2022-12-17T20:28:01.621Z,69.33
2022-12-17T20:30:31.111Z,63.00
2022-12-17T20:33:00.603Z,65.33
2022-12-17T20:35:30.140Z,67.00
2022-12-17T20:37:59.648Z,70.00
2022-12-17T20:40:29.186Z,62.67
2022-12-17T20:42:58.698Z,61.67
2022-12-17T20:45:28.270Z,63.33
2022-12-17T20:47:57.904Z,65.00
2022-12-17T20:50:27.862Z,62.00
2022-12-17T20:53:00.345Z,63.33
2022-12-17T20:55:31.310Z,54.50
2022-12-17T20:58:01.024Z,55.00
2022-12-17T21:00:30.569Z,52.33
2022-12-17T21:03:00.573Z,57.33
2022-12-17T21:05:30.163Z,59.33
2022-12-17T21:07:59.626Z,63.00
2022-12-17T21:10:29.137Z,64.33
2022-12-17T21:13:17.269Z,55.33
2022-12-17T21:15:54.016Z,66.67
2022-12-17T21:18:23.586Z,65.67
2022-12-17T21:21:18.399Z,60.67
2022-12-17T21:23:49.020Z,55.67
2022-12-17T21:26:32.099Z,59.33
2022-12-17T21:29:05.337Z,54.33
2022-12-17T21:31:41.483Z,57.00
2022-12-17T21:34:17.330Z,53.00
2022-12-17T21:36:46.897Z,51.00
2022-12-17T21:39:18.381Z,52.33
2022-12-17T21:42:05.769Z,47.50
2022-12-17T21:44:35.876Z,53.00
2022-12-17T21:47:05.768Z,55.67
2022-12-17T21:49:34.559Z,53.00
2022-12-17T21:52:04.437Z,47.00
2022-12-17T21:54:35.108Z,52.00
2022-12-17T21:57:03.929Z,49.00
2022-12-17T21:59:33.392Z,52.00
2022-12-17T22:02:02.852Z,53.33
2022-12-17T22:04:32.637Z,54.33
2022-12-17T22:07:05.167Z,56.00
2022-12-17T22:09:41.947Z,51.67
2022-12-17T22:12:44.504Z,52.00
2022-12-17T22:15:13.413Z,49.50
2022-12-17T22:17:43.435Z,53.00
2022-12-17T22:20:13.160Z,60.00
2022-12-17T22:22:43.668Z,53.33
2022-12-17T22:25:13.890Z,53.67
2022-12-17T22:27:43.667Z,54.00
2022-12-17T22:30:36.469Z,55.67
2022-12-17T22:33:24.969Z,49.33
2022-12-17T22:37:49.095Z,57.00
2022-12-17T22:42:58.664Z,53.33
2022-12-17T22:44:37.550Z,53.33
2022-12-17T22:44:54.474Z,49.33
2022-12-17T22:47:25.380Z,55.67
2022-12-17T22:49:54.891Z,58.67
2022-12-17T22:52:25.066Z,61.67
2022-12-17T22:54:55.084Z,62.00
2022-12-17T22:57:36.135Z,71.00
2022-12-17T23:00:22.704Z,56.67
2022-12-17T23:02:56.517Z,49.00
2022-12-17T23:05:28.312Z,58.33
2022-12-17T23:07:58.353Z,62.00
2022-12-17T23:10:29.012Z,52.33
2022-12-17T23:12:58.962Z,49.67
2022-12-17T23:15:34.317Z,47.50
2022-12-17T23:18:07.158Z,49.67
2022-12-17T23:20:36.935Z,52.67
2022-12-17T23:23:05.624Z,52.50
2022-12-17T23:25:34.426Z,53.00
2022-12-17T23:28:04.022Z,51.33
2022-12-17T23:30:32.027Z,47.50
2022-12-17T23:33:00.700Z,46.00
2022-12-17T23:35:28.423Z,48.00
2022-12-17T23:37:57.372Z,48.00
2022-12-17T23:40:26.021Z,52.00
2022-12-17T23:42:57.485Z,50.00
2022-12-17T23:45:26.332Z,48.50
2022-12-17T23:47:57.723Z,55.33
2022-12-17T23:50:27.161Z,53.67
2022-12-17T23:52:56.554Z,49.33
2022-12-17T23:55:25.203Z,44.00
2022-12-17T23:57:58.895Z,43.00
